• Join FlightAware (Why Join?)
  • Login
  • US Flag 
10:02PM EDT


 

Airport Tracker/Info


-or-


 

Live Flight TrackerFlight Track Log ✈ EJA102 ✈ 27-Jun-2013 ✈ KLUK - KTVC

Flight Track Log - Related Links

Times and Time Zones

All times are in EDT time to prevent confusion due to time zone crossing. See the EJA102 flight status page for this flight to view local times or setup timezone preferences in your user account.

Time Position Orientation Groundspeed Altitude Reporting Facility
EDT Latitude Longitude Course Direction KTS MPH feet Rate Location/Type
02:22PM 39.0667 -84.4167 131° Southeast 184 212 2,300  Level Cincinnati TRACON
02:23PM 39.0333 -84.3667 131° Southeast 220 253 3,400 1,980 Climbing Cincinnati TRACON
02:24PM 39.0667 -84.3167 49° Northeast 222 255 5,900 1,260 Climbing Cincinnati TRACON
02:25PM 39.1167 -84.3333 346° North 234 269 6,000 420 Climbing Cincinnati TRACON
02:26PM 39.1472 -84.3472 341° North 234 269 6,600 2,160 Climbing Indianapolis Center
02:27PM 39.2114 -84.3761 341° North 241 277 9,400 2,100 Climbing Indianapolis Center
02:28PM 39.2803 -84.4069 341° North 252 290 11,000 1,260 Climbing Indianapolis Center
02:29PM 39.3656 -84.4439 341° North 300 345 12,100 1,260 Climbing Indianapolis Center
02:30PM 39.4722 -84.4925 341° North 336 387 13,700 1,440 Climbing Indianapolis Center
02:31PM 39.5642 -84.5325 341° North 343 395 15,100 1,320 Climbing Indianapolis Center
02:32PM 39.6564 -84.5736 341° North 345 397 16,500 1,260 Climbing Indianapolis Center
02:33PM 39.7483 -84.6164 340° North 347 399 17,800 1,320 Climbing Indianapolis Center
02:34PM 39.8394 -84.6583 341° North 344 396 19,300 1,380 Climbing Indianapolis Center
02:35PM 39.9306 -84.6992 341° North 341 392 20,700 1,320 Climbing Indianapolis Center
02:36PM 40.0186 -84.7467 338° Northwest 340 391 22,100 1,320 Climbing Indianapolis Center
02:37PM 40.0939 -84.8222 322° Northwest 340 391 23,500 1,140 Climbing Indianapolis Center
02:38PM 40.1792 -84.8839 331° Northwest 354 407 24,500 1,020 Climbing Indianapolis Center
02:39PM 40.2956 -84.9122 349° North 365 420 25,700 1,020 Climbing Indianapolis Center
02:40PM 40.3972 -84.9358 350° North 369 425 26,700 960 Climbing Indianapolis Center
02:41PM 40.4997 -84.9594 350° North 375 432 27,700 900 Climbing Indianapolis Center
02:42PM 40.6033 -84.9761 353° North 377 434 28,600 1,080 Climbing Indianapolis Center
02:43PM 40.7119 -84.9897 355° North 374 430 29,900 1,200 Climbing Chicago Center
02:44PM 40.8128 -85.0025 355° North 367 422 31,100 1,200 Climbing Chicago Center
02:45PM 40.9111 -85.0161 354° North 360 414 32,400 1,200 Climbing Chicago Center
02:46PM 41.0078 -85.0306 354° North 353 406 33,600 720 Climbing Chicago Center
02:47PM 41.1042 -85.0456 353° North 350 403 34,000 180 Climbing Chicago Center
02:48PM 41.2278 -85.0608 355° North 367 422 34,000  Level Chicago Center
02:49PM 41.3347 -85.0756 354° North 385 443 34,000  Level Chicago Center
02:50PM 41.4433 -85.0906 354° North 393 452 34,000  Level Chicago Center
02:51PM 41.5528 -85.1064 354° North 399 459 34,000  Level Chicago Center
02:52PM 41.6831 -85.1253 354° North 399 459 34,000  Level Chicago Center
02:54PM 41.7908 -85.1419 353° North 398 458 34,000 -240 Level Chicago Center
02:55PM 41.8972 -85.1572 354° North 390 449 33,600 -1,020 Descending Chicago Center
02:56PM 42.0111 -85.1725 354° North 389 448 32,000 -780 Descending Chicago Center
02:57PM 42.1178 -85.1875 354° North 388 447 32,000  Level Chicago Center
02:58PM 42.2250 -85.2033 354° North 388 447 32,000  Level Chicago Center
02:59PM 42.3314 -85.2181 354° North 387 445 32,000  Level Chicago Center
03:00PM 42.4603 -85.2372 354° North 389 448 32,000  Level Chicago Center
03:01PM 42.5694 -85.2531 354° North 395 455 32,000 -540 Level Chicago Center
03:02PM 42.6789 -85.2681 354° North 397 457 31,000 -540 Descending Chicago Center
03:03PM 42.7894 -85.2844 354° North 400 460 31,000  Level Chicago Center
03:04PM 42.9019 -85.3017 354° North 407 468 31,000  Level Chicago Center
03:05PM 43.0397 -85.3217 354° North 416 479 31,000  Level Chicago Center
03:06PM 43.1542 -85.3383 354° North 418 481 31,000  Level Chicago Center
03:07PM 43.2717 -85.3567 354° North 430 495 31,000 -480 Level Chicago Center
03:08PM 43.3892 -85.3736 354° North 430 495 30,100 -960 Descending Chicago Center
03:09PM 43.5281 -85.3933 354° North 426 490 28,900 -960 Descending Minneapolis Center
03:10PM 43.6447 -85.4111 354° North 425 489 27,900 -1,200 Descending Minneapolis Center
03:11PM 43.7889 -85.4336 354° North 434 499 26,200 -1,680 Descending Minneapolis Center
03:12PM 43.9358 -85.4558 354° North 443 510 24,400 -1,740 Descending Minneapolis Center
03:14PM 44.0547 -85.4722 354° North 437 503 22,600 -1,920 Descending Minneapolis Center
03:15PM 44.1756 -85.4928 353° North 423 487 20,500 -2,340 Descending Minneapolis Center
03:16PM 44.2844 -85.5089 354° North 403 464 17,800 -2,820 Descending Minneapolis Center
03:17PM 44.3811 -85.5250 353° North 359 413 14,700 -3,180 Descending Minneapolis Center
03:18PM 44.4669 -85.5389 353° North 320 368 11,300 -3,780 Descending Minneapolis Center
03:19PM 44.5572 -85.5608 350° North 282 325 7,000 -3,780 Descending Minneapolis Center
03:20PM 44.6292 -85.5778 350° North 271 312 3,500 -2,040 Descending Minneapolis Center
03:21PM 44.6875 -85.5847 355° North 238 274 2,900 -720 Descending Minneapolis Center
03:22PM 44.7061 -85.6311 299° West 183 211 2,100 -720 Descending Minneapolis Center
03:23PM 44.7364 -85.6469 340° North 157 181 1,400 -480 Descending Minneapolis Center
03:24PM 44.7458 -85.5803 79° East 152 175 1,100 -300 Descending Minneapolis Center